createdAt,value
2023-05-22T00:00:10.059Z,21.96
2023-05-22T00:02:43.048Z,21.96
2023-05-22T00:05:10.720Z,21.95
2023-05-22T00:07:37.167Z,21.95
2023-05-22T00:10:03.595Z,21.95
2023-05-22T00:12:29.980Z,21.95
2023-05-22T00:14:56.370Z,21.95
2023-05-22T00:17:23.783Z,21.94
2023-05-22T00:19:51.468Z,21.94
2023-05-22T00:22:17.881Z,21.94
2023-05-22T00:24:44.289Z,21.95
2023-05-22T00:27:10.714Z,21.94
2023-05-22T00:29:37.154Z,21.93
2023-05-22T00:32:03.547Z,21.94
2023-05-22T00:34:30.017Z,21.94
2023-05-22T00:36:56.450Z,21.92
2023-05-22T00:39:22.855Z,21.93
2023-05-22T00:41:49.316Z,21.93
2023-05-22T00:44:15.708Z,21.93
2023-05-22T00:46:43.172Z,21.92
2023-05-22T00:49:09.802Z,21.93
2023-05-22T00:51:36.210Z,21.91
2023-05-22T00:54:02.742Z,21.92
2023-05-22T00:56:29.234Z,21.91
2023-05-22T00:58:55.886Z,21.92
2023-05-22T01:01:23.182Z,21.91
2023-05-22T01:03:50.714Z,21.92
2023-05-22T01:06:21.502Z,21.91
2023-05-22T01:08:47.917Z,21.91
2023-05-22T01:11:16.387Z,21.91
2023-05-22T01:13:56.758Z,21.92
2023-05-22T01:16:44.405Z,21.91
2023-05-22T01:19:20.327Z,21.91
2023-05-22T01:22:01.231Z,21.91
2023-05-22T01:24:33.080Z,21.91
2023-05-22T01:27:03.777Z,21.90
2023-05-22T01:29:43.849Z,21.89
2023-05-22T01:32:11.129Z,21.90
2023-05-22T01:34:38.501Z,21.89
2023-05-22T01:37:04.987Z,21.88
2023-05-22T01:39:31.386Z,21.89
2023-05-22T01:41:57.886Z,21.88
2023-05-22T01:44:25.142Z,21.88
2023-05-22T01:46:51.526Z,21.88
2023-05-22T01:49:17.931Z,21.88
2023-05-22T01:51:53.848Z,21.88
2023-05-22T01:54:24.917Z,21.87
2023-05-22T01:57:10.266Z,21.88
2023-05-22T01:59:48.426Z,21.87
2023-05-22T02:02:18.478Z,21.87
2023-05-22T02:04:57.411Z,21.86
2023-05-22T02:07:24.998Z,21.85
2023-05-22T02:09:51.914Z,21.85
2023-05-22T02:12:18.334Z,21.86
2023-05-22T02:14:44.751Z,21.86
2023-05-22T02:17:11.414Z,21.86
2023-05-22T02:19:37.862Z,21.85
2023-05-22T02:22:05.401Z,21.84
2023-05-22T02:24:36.933Z,21.86
2023-05-22T02:27:04.183Z,21.84
2023-05-22T02:29:30.676Z,21.84
2023-05-22T02:31:57.136Z,21.85
2023-05-22T02:34:26.888Z,21.84
2023-05-22T02:36:53.297Z,21.83
2023-05-22T02:39:20.109Z,21.83
2023-05-22T02:41:46.608Z,21.83
2023-05-22T02:44:13.027Z,21.83
2023-05-22T02:46:39.502Z,21.82
2023-05-22T02:49:05.943Z,21.83
2023-05-22T02:51:32.387Z,21.83
2023-05-22T02:53:58.873Z,21.83
2023-05-22T02:56:27.781Z,21.82
2023-05-22T02:58:55.022Z,21.82
2023-05-22T03:01:22.028Z,21.81
2023-05-22T03:03:48.978Z,21.82
2023-05-22T03:06:15.622Z,21.81
2023-05-22T03:08:43.595Z,21.82
2023-05-22T03:11:09.991Z,21.82
2023-05-22T03:13:36.384Z,21.81
2023-05-22T03:16:02.807Z,21.81
2023-05-22T03:18:29.924Z,21.81
2023-05-22T03:20:56.379Z,21.81
2023-05-22T03:23:22.819Z,21.80
2023-05-22T03:25:49.316Z,21.82
2023-05-22T03:28:15.992Z,21.82
2023-05-22T03:30:42.477Z,21.82
2023-05-22T03:33:14.123Z,21.86
2023-05-22T03:35:40.700Z,21.83
2023-05-22T03:38:07.172Z,21.82
2023-05-22T03:40:33.634Z,21.81
2023-05-22T03:43:00.062Z,21.81
2023-05-22T03:45:26.651Z,21.81
2023-05-22T03:47:53.095Z,21.79
2023-05-22T03:50:19.572Z,21.79
2023-05-22T03:52:45.949Z,21.78
2023-05-22T03:55:12.343Z,21.79
2023-05-22T03:57:38.732Z,21.79
2023-05-22T04:00:09.744Z,21.78
2023-05-22T04:02:39.841Z,21.79
2023-05-22T04:05:07.311Z,21.79
2023-05-22T04:07:33.729Z,21.78
2023-05-22T04:10:00.205Z,21.78
2023-05-22T04:12:26.738Z,21.77
2023-05-22T04:14:53.125Z,21.79
2023-05-22T04:17:19.533Z,21.78
2023-05-22T04:19:46.160Z,21.77
2023-05-22T04:22:12.573Z,21.77
2023-05-22T04:24:39.822Z,21.79
2023-05-22T04:27:06.522Z,21.77
2023-05-22T04:29:36.280Z,21.78
2023-05-22T04:32:02.696Z,21.78
2023-05-22T04:34:30.209Z,21.77
2023-05-22T04:36:56.647Z,21.77
2023-05-22T04:39:26.215Z,21.77
2023-05-22T04:41:52.764Z,21.77
2023-05-22T04:44:22.802Z,21.77
2023-05-22T04:46:51.263Z,21.77
2023-05-22T04:49:17.780Z,21.78
2023-05-22T04:51:44.173Z,21.78
2023-05-22T04:54:10.605Z,21.77
2023-05-22T04:56:37.513Z,21.77
2023-05-22T04:59:05.468Z,21.77
2023-05-22T05:01:33.645Z,21.77
2023-05-22T05:04:00.215Z,21.80
2023-05-22T05:06:27.279Z,21.79
2023-05-22T05:08:54.108Z,21.79
2023-05-22T05:11:21.582Z,21.78
2023-05-22T05:13:48.017Z,21.78
2023-05-22T05:16:14.506Z,21.77
2023-05-22T05:18:40.977Z,21.78
2023-05-22T05:21:07.879Z,21.78
2023-05-22T05:23:34.312Z,21.78
2023-05-22T05:26:00.735Z,21.78
2023-05-22T05:28:27.849Z,21.79
2023-05-22T05:30:54.526Z,21.79
2023-05-22T05:33:39.585Z,21.75
2023-05-22T05:36:12.276Z,21.67
2023-05-22T05:38:39.514Z,21.48
2023-05-22T05:41:06.484Z,21.38
2023-05-22T05:43:34.043Z,21.38
2023-05-22T05:46:04.350Z,21.38
2023-05-22T05:48:30.810Z,21.39
2023-05-22T05:50:58.095Z,21.41
2023-05-22T05:53:25.662Z,21.43
2023-05-22T05:55:57.309Z,21.44
2023-05-22T05:58:23.712Z,21.45
2023-05-22T06:01:04.964Z,21.44
2023-05-22T06:03:31.568Z,21.48
2023-05-22T06:06:21.016Z,21.52
2023-05-22T06:09:06.611Z,21.57
2023-05-22T06:11:36.734Z,21.59
2023-05-22T06:14:03.881Z,21.59
2023-05-22T06:16:31.294Z,21.61
2023-05-22T06:18:58.615Z,21.62
2023-05-22T06:21:26.129Z,21.63
2023-05-22T06:23:52.545Z,21.62
2023-05-22T06:26:19.648Z,21.64
2023-05-22T06:28:46.460Z,21.63
2023-05-22T06:31:12.964Z,21.60
2023-05-22T06:33:43.653Z,21.46
2023-05-22T06:36:11.460Z,21.31
2023-05-22T06:38:40.806Z,21.26
2023-05-22T06:41:16.525Z,21.21
2023-05-22T06:43:42.922Z,21.21
2023-05-22T06:46:12.540Z,21.24
2023-05-22T06:48:50.622Z,21.39
2023-05-22T06:51:24.305Z,21.86
2023-05-22T06:53:53.815Z,22.05
2023-05-22T06:56:24.786Z,22.20
2023-05-22T06:58:54.089Z,22.30
2023-05-22T07:01:23.543Z,22.28
2023-05-22T07:04:01.894Z,22.30
2023-05-22T07:06:39.050Z,22.42
2023-05-22T07:09:06.190Z,21.90
2023-05-22T07:11:32.852Z,22.11
2023-05-22T07:13:59.253Z,22.30
2023-05-22T07:16:25.757Z,22.33
2023-05-22T07:18:53.155Z,22.24
2023-05-22T07:21:19.634Z,22.23
2023-05-22T07:23:46.298Z,22.24
2023-05-22T07:26:12.830Z,22.29
2023-05-22T07:28:47.159Z,22.24
2023-05-22T07:31:14.329Z,22.22
2023-05-22T07:33:40.849Z,22.27
2023-05-22T07:36:07.302Z,22.45
2023-05-22T07:38:35.522Z,22.47
2023-05-22T07:41:04.784Z,22.51
2023-05-22T07:43:33.086Z,22.63
2023-05-22T07:46:00.026Z,22.68
2023-05-22T07:48:30.899Z,22.61
2023-05-22T07:50:57.266Z,22.73
2023-05-22T07:53:23.895Z,22.73
2023-05-22T07:55:53.020Z,22.76
2023-05-22T07:58:19.645Z,22.78
2023-05-22T08:00:47.498Z,22.88
2023-05-22T08:03:14.009Z,22.96
2023-05-22T08:05:40.531Z,23.09
2023-05-22T08:08:06.965Z,23.07
2023-05-22T08:10:46.628Z,22.83
2023-05-22T08:13:13.906Z,22.85
2023-05-22T08:15:40.406Z,22.79
2023-05-22T08:18:06.874Z,22.79
2023-05-22T08:20:33.789Z,22.80
2023-05-22T08:23:00.283Z,22.83
2023-05-22T08:25:26.677Z,22.82
2023-05-22T08:27:53.078Z,22.77
2023-05-22T08:30:19.472Z,22.79
2023-05-22T08:32:45.976Z,22.84
2023-05-22T08:35:12.419Z,22.85
2023-05-22T08:37:38.796Z,23.04
2023-05-22T08:40:05.553Z,23.07
2023-05-22T08:42:31.985Z,23.29
2023-05-22T08:45:01.124Z,23.14
2023-05-22T08:47:28.455Z,22.96
2023-05-22T08:49:55.023Z,22.77
2023-05-22T08:52:26.295Z,22.83
2023-05-22T08:54:53.201Z,23.04
2023-05-22T08:57:19.841Z,23.22
2023-05-22T08:59:46.333Z,22.97
2023-05-22T09:02:12.759Z,22.73
2023-05-22T09:04:40.850Z,22.89
2023-05-22T09:07:09.061Z,22.95
2023-05-22T09:09:38.649Z,23.23
2023-05-22T09:12:11.741Z,23.25
2023-05-22T09:14:39.108Z,23.23
2023-05-22T09:17:05.542Z,23.21
2023-05-22T09:19:31.991Z,23.27
2023-05-22T09:22:04.649Z,23.30
2023-05-22T09:24:31.140Z,23.07
2023-05-22T09:26:57.512Z,23.29
2023-05-22T09:29:23.949Z,23.25
2023-05-22T09:31:50.573Z,23.17
2023-05-22T09:34:17.619Z,23.20
2023-05-22T09:36:44.074Z,23.21
2023-05-22T09:39:10.945Z,23.36
2023-05-22T09:41:38.137Z,23.54
2023-05-22T09:44:14.303Z,23.34
2023-05-22T09:46:41.609Z,23.37
2023-05-22T09:49:08.245Z,23.34
2023-05-22T09:51:35.726Z,23.33
2023-05-22T09:54:03.471Z,23.34
2023-05-22T09:56:38.480Z,23.31
2023-05-22T09:59:06.112Z,23.28
2023-05-22T10:01:33.977Z,23.38
2023-05-22T10:04:00.412Z,23.43
2023-05-22T10:06:27.221Z,23.51
2023-05-22T10:08:55.061Z,23.57
2023-05-22T10:11:21.578Z,23.60
2023-05-22T10:13:47.993Z,23.61
2023-05-22T10:16:15.329Z,23.58
2023-05-22T10:18:41.932Z,23.65
2023-05-22T10:21:08.367Z,23.60
2023-05-22T10:23:34.770Z,23.64
2023-05-22T10:26:01.217Z,23.68
2023-05-22T10:28:28.194Z,23.69
2023-05-22T10:31:03.015Z,23.60
2023-05-22T10:33:48.494Z,23.71
2023-05-22T10:36:24.843Z,23.76
2023-05-22T10:38:57.636Z,23.75
2023-05-22T10:41:24.046Z,23.78
2023-05-22T10:43:50.632Z,23.82
2023-05-22T10:46:17.091Z,23.75
2023-05-22T10:48:47.202Z,23.89
2023-05-22T10:51:14.272Z,23.84
2023-05-22T10:53:40.977Z,23.89
2023-05-22T10:56:11.038Z,23.51
2023-05-22T10:58:37.503Z,23.33
2023-05-22T11:01:17.239Z,23.37
2023-05-22T11:03:59.292Z,23.37
2023-05-22T11:06:45.698Z,23.41
2023-05-22T11:09:30.897Z,23.35
2023-05-22T11:12:19.617Z,23.31
2023-05-22T11:14:49.327Z,23.37
2023-05-22T11:17:20.823Z,23.61
2023-05-22T11:20:06.292Z,23.62
2023-05-22T11:22:34.318Z,23.68
2023-05-22T11:25:00.698Z,23.72
2023-05-22T11:27:27.242Z,23.76
2023-05-22T11:29:53.727Z,23.83
2023-05-22T11:32:22.339Z,23.88
2023-05-22T11:34:50.446Z,23.75
2023-05-22T11:37:20.181Z,23.71
2023-05-22T11:39:55.929Z,23.74
2023-05-22T11:42:22.312Z,23.76
2023-05-22T11:44:48.726Z,23.72
2023-05-22T11:47:15.165Z,23.45
2023-05-22T11:49:42.375Z,23.39
2023-05-22T11:52:09.315Z,23.48
2023-05-22T11:54:37.853Z,23.52
2023-05-22T11:57:07.993Z,23.65
2023-05-22T11:59:34.406Z,23.68
2023-05-22T12:02:00.809Z,23.77
2023-05-22T12:04:27.266Z,23.78
2023-05-22T12:06:53.858Z,23.57
2023-05-22T12:09:20.407Z,23.66
2023-05-22T12:11:46.927Z,23.80
2023-05-22T12:14:13.316Z,23.90
2023-05-22T12:16:39.819Z,23.85
2023-05-22T12:19:09.507Z,23.87
2023-05-22T12:21:36.605Z,23.88
2023-05-22T12:24:03.338Z,23.91
2023-05-22T12:26:29.772Z,23.92
2023-05-22T12:28:56.639Z,23.92
2023-05-22T12:31:23.041Z,23.98
2023-05-22T12:33:49.420Z,23.97
2023-05-22T12:36:15.806Z,23.98
2023-05-22T12:38:42.193Z,24.00
2023-05-22T12:41:08.574Z,24.01
2023-05-22T12:43:35.020Z,24.05
2023-05-22T12:46:02.882Z,24.15
2023-05-22T12:48:29.531Z,24.19
2023-05-22T12:50:55.919Z,24.20
2023-05-22T12:53:22.329Z,23.98
2023-05-22T12:55:48.720Z,23.90
2023-05-22T12:58:15.310Z,23.86
2023-05-22T13:00:41.906Z,23.85
2023-05-22T13:03:08.619Z,23.77
2023-05-22T13:05:35.030Z,23.79
2023-05-22T13:08:01.468Z,23.79
2023-05-22T13:10:27.887Z,23.83
2023-05-22T13:12:54.382Z,23.73
2023-05-22T13:15:20.972Z,23.65
2023-05-22T13:17:47.452Z,23.64
2023-05-22T13:20:13.902Z,23.59
2023-05-22T13:22:40.454Z,23.57
2023-05-22T13:25:06.965Z,23.56
2023-05-22T13:27:34.033Z,23.58
2023-05-22T13:30:00.596Z,23.59
2023-05-22T13:32:27.184Z,23.59
2023-05-22T13:34:53.652Z,23.59
2023-05-22T13:37:20.141Z,23.58
2023-05-22T13:39:46.767Z,23.59
2023-05-22T13:42:13.235Z,23.59
2023-05-22T13:44:39.640Z,23.56
2023-05-22T13:47:06.129Z,23.57
2023-05-22T13:49:32.569Z,23.55
2023-05-22T13:51:59.000Z,23.56
2023-05-22T13:54:25.424Z,23.57
2023-05-22T13:56:51.846Z,23.82
2023-05-22T13:59:18.264Z,23.91
2023-05-22T14:01:44.763Z,23.93
2023-05-22T14:04:11.182Z,23.96
2023-05-22T14:06:37.583Z,23.96
2023-05-22T14:09:07.071Z,23.96
2023-05-22T14:11:33.740Z,23.94
2023-05-22T14:14:00.130Z,24.25
2023-05-22T14:16:26.582Z,24.35
2023-05-22T14:18:53.063Z,24.37
2023-05-22T14:21:19.544Z,24.36
2023-05-22T14:23:45.941Z,24.38
2023-05-22T14:26:13.700Z,24.19
2023-05-22T14:28:41.034Z,24.04
2023-05-22T14:31:07.735Z,23.98
2023-05-22T14:33:34.176Z,24.06
2023-05-22T14:36:00.565Z,24.15
2023-05-22T14:38:26.967Z,24.25
2023-05-22T14:40:53.353Z,24.29
2023-05-22T14:43:19.769Z,24.29
2023-05-22T14:45:46.158Z,24.31
2023-05-22T14:48:12.807Z,24.30
2023-05-22T14:50:39.308Z,24.36
2023-05-22T14:53:05.724Z,24.36
2023-05-22T14:55:32.191Z,24.43
2023-05-22T14:57:58.588Z,24.53
2023-05-22T15:00:25.072Z,24.45
2023-05-22T15:02:51.553Z,24.44
2023-05-22T15:05:18.133Z,24.48
2023-05-22T15:07:46.741Z,24.57
2023-05-22T15:10:14.281Z,24.60
2023-05-22T15:12:40.778Z,24.50
2023-05-22T15:15:07.423Z,24.47
2023-05-22T15:17:33.895Z,24.48
2023-05-22T15:20:00.457Z,24.56
2023-05-22T15:22:26.861Z,24.62
2023-05-22T15:25:06.150Z,24.60
2023-05-22T15:27:32.982Z,24.58
2023-05-22T15:29:59.394Z,24.60
2023-05-22T15:32:25.910Z,24.61
2023-05-22T15:34:52.496Z,24.57
2023-05-22T15:37:18.905Z,24.54
2023-05-22T15:39:45.364Z,24.58
2023-05-22T15:42:11.761Z,24.60
2023-05-22T15:44:38.147Z,24.62
2023-05-22T15:47:04.538Z,24.64
2023-05-22T15:49:31.515Z,24.44
2023-05-22T15:51:58.062Z,24.31
2023-05-22T15:54:24.519Z,24.18
2023-05-22T15:56:51.011Z,24.18
2023-05-22T15:59:17.391Z,24.09
2023-05-22T16:01:43.908Z,24.09
2023-05-22T16:04:10.453Z,24.00
2023-05-22T16:06:36.956Z,23.99
2023-05-22T16:09:03.363Z,24.03
2023-05-22T16:11:30.098Z,24.02
2023-05-22T16:13:56.487Z,24.00
2023-05-22T16:16:23.146Z,23.97
2023-05-22T16:18:49.634Z,23.94
2023-05-22T16:21:16.061Z,23.92
2023-05-22T16:23:42.448Z,23.89
2023-05-22T16:26:08.889Z,23.88
2023-05-22T16:28:35.289Z,23.86
2023-05-22T16:31:01.753Z,23.86
2023-05-22T16:33:28.207Z,23.83
2023-05-22T16:35:54.613Z,23.81
2023-05-22T16:38:21.013Z,23.78
2023-05-22T16:40:47.398Z,23.79
2023-05-22T16:43:13.922Z,23.77
2023-05-22T16:45:40.596Z,23.75
2023-05-22T16:48:08.235Z,23.74
2023-05-22T16:50:34.723Z,23.73
2023-05-22T16:53:01.156Z,23.72
2023-05-22T16:55:27.544Z,23.71
2023-05-22T16:57:53.950Z,23.70
2023-05-22T17:00:20.598Z,23.70
2023-05-22T17:02:47.161Z,23.70
2023-05-22T17:05:13.599Z,23.70
2023-05-22T17:07:39.985Z,23.70
2023-05-22T17:10:06.593Z,23.68
2023-05-22T17:12:32.995Z,23.64
2023-05-22T17:14:59.440Z,23.66
2023-05-22T17:17:26.021Z,23.64
2023-05-22T17:19:53.306Z,23.64
2023-05-22T17:22:19.713Z,23.62
2023-05-22T17:24:46.198Z,23.60
2023-05-22T17:29:39.138Z,23.57
2023-05-22T17:32:06.604Z,23.57
2023-05-22T17:34:33.057Z,23.56
2023-05-22T17:36:59.449Z,23.55
2023-05-22T17:39:25.867Z,23.54
2023-05-22T17:41:52.254Z,23.53
2023-05-22T17:44:18.656Z,23.52
2023-05-22T17:46:45.055Z,23.52
2023-05-22T17:49:11.526Z,23.52
2023-05-22T17:51:37.913Z,23.50
2023-05-22T17:54:06.023Z,23.49
2023-05-22T17:56:32.445Z,23.49
2023-05-22T17:58:58.852Z,23.48
2023-05-22T18:01:27.081Z,23.48
2023-05-22T18:03:53.804Z,23.45
2023-05-22T18:06:23.209Z,23.46
2023-05-22T18:08:50.477Z,23.48
2023-05-22T18:11:16.969Z,23.47
2023-05-22T18:13:43.363Z,23.45
2023-05-22T18:16:09.868Z,23.45
2023-05-22T18:18:36.310Z,23.45
2023-05-22T18:21:02.762Z,23.47
2023-05-22T18:23:29.160Z,23.40
2023-05-22T18:25:57.212Z,23.31
2023-05-22T18:28:26.231Z,23.25
2023-05-22T18:30:52.961Z,23.36
2023-05-22T18:33:19.912Z,23.39
2023-05-22T18:35:46.349Z,23.40
2023-05-22T18:38:12.730Z,23.40
2023-05-22T18:40:39.376Z,23.40
2023-05-22T18:43:06.096Z,23.40
2023-05-22T18:45:32.506Z,23.41
2023-05-22T18:47:59.023Z,23.39
2023-05-22T18:50:26.345Z,23.38
2023-05-22T18:52:52.724Z,23.36
2023-05-22T18:55:19.115Z,23.36
2023-05-22T18:57:45.569Z,23.36
2023-05-22T19:00:12.185Z,23.36
2023-05-22T19:02:38.617Z,23.33
2023-05-22T19:05:05.253Z,23.34
2023-05-22T19:07:31.836Z,23.33
2023-05-22T19:09:58.249Z,23.32
2023-05-22T19:12:25.476Z,23.31
2023-05-22T19:14:53.960Z,23.33
2023-05-22T19:17:20.640Z,23.30
2023-05-22T19:19:47.323Z,23.30
2023-05-22T19:22:14.518Z,23.29
2023-05-22T19:24:41.740Z,23.23
2023-05-22T19:27:08.137Z,23.19
2023-05-22T19:29:34.537Z,23.20
2023-05-22T19:32:01.067Z,23.24
2023-05-22T19:34:27.475Z,23.24
2023-05-22T19:36:57.532Z,23.24
2023-05-22T19:39:24.150Z,23.24
2023-05-22T19:41:52.485Z,23.28
2023-05-22T19:44:19.002Z,23.27
2023-05-22T19:46:46.234Z,23.22
2023-05-22T19:49:12.749Z,23.27
2023-05-22T19:51:39.147Z,23.25
2023-05-22T19:54:05.624Z,23.25
2023-05-22T19:56:34.912Z,23.24
2023-05-22T19:59:01.321Z,23.23
2023-05-22T20:01:27.734Z,23.23
2023-05-22T20:03:56.020Z,23.23
2023-05-22T20:06:22.811Z,23.23
2023-05-22T20:08:49.230Z,23.21
2023-05-22T20:11:15.613Z,23.16
2023-05-22T20:13:42.032Z,23.17
2023-05-22T20:16:11.765Z,23.19
2023-05-22T20:18:40.897Z,23.19
2023-05-22T20:21:07.494Z,23.20
2023-05-22T20:23:33.982Z,23.18
2023-05-22T20:26:00.362Z,23.19
2023-05-22T20:28:26.778Z,23.17
2023-05-22T20:30:53.146Z,23.17
2023-05-22T20:33:19.690Z,23.18
2023-05-22T20:38:14.963Z,23.17
2023-05-22T20:40:46.441Z,23.16
2023-05-22T20:43:13.961Z,23.16
2023-05-22T20:45:41.665Z,23.15
2023-05-22T20:48:08.308Z,23.15
2023-05-22T20:50:36.563Z,23.15
2023-05-22T20:53:06.396Z,23.14
2023-05-22T20:55:33.522Z,23.14
2023-05-22T20:57:59.923Z,23.14
2023-05-22T21:00:26.325Z,23.13
2023-05-22T21:02:52.764Z,23.14
2023-05-22T21:05:19.183Z,23.14
2023-05-22T21:07:45.577Z,23.14
2023-05-22T21:10:11.966Z,23.13
2023-05-22T21:12:38.352Z,23.13
2023-05-22T21:15:04.984Z,23.13
2023-05-22T21:17:31.403Z,23.12
2023-05-22T21:19:57.808Z,23.12
2023-05-22T21:22:24.192Z,23.12
2023-05-22T21:24:50.590Z,23.11
2023-05-22T21:27:16.985Z,23.11
2023-05-22T21:29:43.382Z,23.09
2023-05-22T21:32:09.787Z,23.08
2023-05-22T21:34:36.199Z,23.09
2023-05-22T21:37:02.622Z,23.09
2023-05-22T21:39:29.026Z,23.09
2023-05-22T21:41:55.424Z,23.08
2023-05-22T21:44:21.823Z,23.08
2023-05-22T21:46:48.289Z,23.08
2023-05-22T21:49:14.738Z,23.08
2023-05-22T21:51:41.135Z,23.08
2023-05-22T21:54:07.513Z,23.07
2023-05-22T21:56:33.877Z,23.05
2023-05-22T21:59:00.312Z,23.06
2023-05-22T22:01:26.738Z,23.06
2023-05-22T22:03:53.190Z,23.06
2023-05-22T22:06:19.593Z,23.06
2023-05-22T22:08:46.001Z,23.05
2023-05-22T22:11:12.388Z,23.05
2023-05-22T22:13:38.795Z,23.05
2023-05-22T22:16:05.550Z,23.05
2023-05-22T22:18:33.455Z,23.03
2023-05-22T22:21:02.209Z,23.03
2023-05-22T22:23:29.155Z,23.03
2023-05-22T22:25:56.004Z,23.04
2023-05-22T22:28:22.422Z,23.03
2023-05-22T22:30:48.841Z,23.03
2023-05-22T22:33:15.235Z,23.03
2023-05-22T22:35:42.169Z,23.02
2023-05-22T22:38:08.823Z,23.01
2023-05-22T22:40:35.468Z,23.00
2023-05-22T22:43:01.880Z,22.99
2023-05-22T22:45:28.275Z,23.00
2023-05-22T22:47:56.464Z,22.99
2023-05-22T22:50:24.329Z,23.00
2023-05-22T22:52:51.060Z,22.99
2023-05-22T22:55:17.704Z,22.98
2023-05-22T22:57:46.926Z,22.99
2023-05-22T23:00:13.666Z,22.98
2023-05-22T23:02:40.202Z,22.97
2023-05-22T23:05:06.917Z,22.97
2023-05-22T23:07:33.475Z,22.98
2023-05-22T23:09:59.896Z,22.97
2023-05-22T23:12:26.341Z,22.96
2023-05-22T23:14:53.560Z,22.97
2023-05-22T23:17:19.953Z,22.97
2023-05-22T23:19:46.778Z,22.96
2023-05-22T23:22:13.170Z,22.96
2023-05-22T23:24:39.575Z,22.95
2023-05-22T23:27:06.117Z,22.96
2023-05-22T23:29:32.523Z,22.96
2023-05-22T23:31:59.162Z,22.96
2023-05-22T23:34:25.764Z,22.95
2023-05-22T23:36:52.147Z,22.95
2023-05-22T23:39:18.556Z,22.95
2023-05-22T23:41:45.400Z,22.95
2023-05-22T23:44:12.185Z,22.94
2023-05-22T23:46:39.724Z,22.94
2023-05-22T23:49:07.135Z,22.94
2023-05-22T23:51:33.551Z,22.93
2023-05-22T23:53:59.948Z,22.93
2023-05-22T23:56:26.495Z,22.92
2023-05-22T23:58:52.917Z,22.93
